createdAt,value
2023-01-28T00:01:17.091Z,2.47
2023-01-28T00:04:38.860Z,2.90
2023-01-28T00:08:02.079Z,2.72
2023-01-28T00:11:24.555Z,3.05
2023-01-28T00:14:46.583Z,2.58
2023-01-28T00:18:08.382Z,3.70
2023-01-28T00:21:30.331Z,4.70
2023-01-28T00:24:54.906Z,3.63
2023-01-28T00:28:16.752Z,3.28
2023-01-28T00:31:39.060Z,4.05
2023-01-28T00:35:00.920Z,4.35
2023-01-28T00:38:22.640Z,3.67
2023-01-28T00:41:45.971Z,4.57
2023-01-28T00:45:08.819Z,3.83
2023-01-28T00:48:31.057Z,4.38
2023-01-28T00:51:52.929Z,3.00
2023-01-28T00:55:15.607Z,2.97
2023-01-28T00:58:39.339Z,2.58
2023-01-28T01:02:12.624Z,2.95
2023-01-28T01:05:35.016Z,3.40
2023-01-28T01:08:57.016Z,2.75
2023-01-28T01:12:19.756Z,2.90
2023-01-28T01:15:43.563Z,2.63
2023-01-28T01:19:06.418Z,2.67
2023-01-28T01:22:28.708Z,3.35
2023-01-28T01:25:50.810Z,2.25
2023-01-28T01:29:12.607Z,3.60
2023-01-28T01:32:36.633Z,4.35
2023-01-28T01:35:59.165Z,3.20
2023-01-28T01:39:21.570Z,3.08
2023-01-28T01:42:43.655Z,2.50
2023-01-28T01:46:05.836Z,2.38
2023-01-28T01:49:30.228Z,2.83
2023-01-28T01:52:57.437Z,2.58
2023-01-28T01:56:25.001Z,2.45
2023-01-28T01:59:47.103Z,6.03
2023-01-28T02:03:10.514Z,4.57
2023-01-28T02:06:34.613Z,6.45
2023-01-28T02:09:56.284Z,4.00
2023-01-28T02:13:20.602Z,4.13
2023-01-28T02:16:43.087Z,3.70
2023-01-28T02:20:08.913Z,3.50
2023-01-28T02:23:49.631Z,3.92
2023-01-28T02:27:30.953Z,3.58
2023-01-28T02:30:59.837Z,2.70
2023-01-28T02:34:32.618Z,3.03
2023-01-28T02:38:00.093Z,3.22
2023-01-28T02:41:28.715Z,3.72
2023-01-28T02:44:50.789Z,3.78
2023-01-28T02:48:13.175Z,2.70
2023-01-28T02:52:00.016Z,3.33
2023-01-28T02:55:31.798Z,2.47
2023-01-28T02:59:22.696Z,2.80
2023-01-28T03:02:50.321Z,2.03
2023-01-28T03:06:19.302Z,2.42
2023-01-28T03:09:45.899Z,2.05
2023-01-28T03:13:25.791Z,1.70
2023-01-28T03:17:05.591Z,1.40
2023-01-28T03:20:48.241Z,1.95
2023-01-28T03:24:33.102Z,1.55
2023-01-28T03:28:17.883Z,1.70
2023-01-28T03:31:58.572Z,1.65
2023-01-28T03:35:41.668Z,2.38
2023-01-28T03:39:03.969Z,2.00
2023-01-28T03:42:27.190Z,2.00
2023-01-28T03:45:51.622Z,1.95
2023-01-28T03:49:13.895Z,1.70
2023-01-28T03:52:37.592Z,2.85
2023-01-28T03:55:59.606Z,1.42
2023-01-28T03:59:22.810Z,2.10
2023-01-28T04:02:45.018Z,2.58
2023-01-28T04:06:08.509Z,2.28
2023-01-28T04:09:30.850Z,1.33
2023-01-28T04:12:54.502Z,1.13
2023-01-28T04:16:19.273Z,2.03
2023-01-28T04:19:41.965Z,2.42
2023-01-28T04:23:04.409Z,1.90
2023-01-28T04:26:26.453Z,1.90
2023-01-28T04:29:48.049Z,2.58
2023-01-28T04:33:11.594Z,3.92
2023-01-28T04:36:33.502Z,3.72
2023-01-28T04:39:55.589Z,4.18
2023-01-28T04:43:18.143Z,4.85
2023-01-28T04:46:40.255Z,4.53
2023-01-28T04:50:03.447Z,3.10
2023-01-28T04:53:25.396Z,2.28
2023-01-28T04:56:47.426Z,2.17
2023-01-28T05:00:10.559Z,2.45
2023-01-28T05:03:34.723Z,1.30
2023-01-28T05:06:59.676Z,2.47
2023-01-28T05:10:22.291Z,2.17
2023-01-28T05:13:44.339Z,2.17
2023-01-28T05:17:06.608Z,1.70
2023-01-28T05:20:28.985Z,4.53
2023-01-28T05:23:52.384Z,2.30
2023-01-28T05:27:14.866Z,2.35
2023-01-28T05:30:36.587Z,2.17
2023-01-28T05:33:58.897Z,1.10
2023-01-28T05:37:21.248Z,1.65
2023-01-28T05:40:44.403Z,1.92
2023-01-28T05:44:06.813Z,2.17
2023-01-28T05:47:29.038Z,1.88
2023-01-28T05:50:51.100Z,2.65
2023-01-28T05:54:13.281Z,2.40
2023-01-28T05:57:37.408Z,1.80
2023-01-28T06:00:59.538Z,1.77
2023-01-28T06:04:21.373Z,2.50
2023-01-28T06:07:46.190Z,3.85
2023-01-28T06:11:08.310Z,4.70
2023-01-28T06:14:31.885Z,3.25
2023-01-28T06:17:53.752Z,3.83
2023-01-28T06:21:15.561Z,2.97
2023-01-28T06:24:37.549Z,2.92
2023-01-28T06:27:59.350Z,2.55
2023-01-28T06:31:22.512Z,2.80
2023-01-28T06:34:44.502Z,4.65
2023-01-28T06:38:06.072Z,3.45
2023-01-28T06:41:27.870Z,6.20
2023-01-28T06:44:49.567Z,6.38
2023-01-28T06:48:13.285Z,8.73
2023-01-28T06:51:35.413Z,9.00
2023-01-28T06:54:57.410Z,17.98
2023-01-28T06:58:19.489Z,16.45
2023-01-28T07:01:41.389Z,15.00
2023-01-28T07:05:04.882Z,10.07
2023-01-28T07:08:29.497Z,10.25
2023-01-28T07:11:51.209Z,7.70
2023-01-28T07:15:15.357Z,5.30
2023-01-28T07:18:37.239Z,5.50
2023-01-28T07:22:03.248Z,6.32
2023-01-28T07:25:25.207Z,5.38
2023-01-28T07:28:47.582Z,4.90
2023-01-28T07:32:09.694Z,21.13
2023-01-28T07:35:32.581Z,17.90
2023-01-28T07:38:56.740Z,16.42
2023-01-28T07:42:19.212Z,4.85
2023-01-28T07:45:41.589Z,5.65
2023-01-28T07:49:03.734Z,4.32
2023-01-28T07:52:25.891Z,5.32
2023-01-28T07:55:49.163Z,5.50
2023-01-28T07:59:11.055Z,4.18
2023-01-28T08:02:32.988Z,4.03
2023-01-28T08:05:57.223Z,7.22
2023-01-28T08:09:19.131Z,4.82
2023-01-28T08:12:42.153Z,4.90
2023-01-28T08:16:05.549Z,3.78
2023-01-28T08:19:27.916Z,5.40
2023-01-28T08:22:49.657Z,7.43
2023-01-28T08:26:11.464Z,5.80
2023-01-28T08:29:35.316Z,7.18
2023-01-28T08:32:58.784Z,6.60
2023-01-28T08:36:20.564Z,5.05
2023-01-28T08:39:44.305Z,4.03
2023-01-28T08:43:07.397Z,4.75
2023-01-28T08:46:30.542Z,5.50
2023-01-28T08:49:52.362Z,4.15
2023-01-28T08:53:16.126Z,6.30
2023-01-28T08:56:39.233Z,5.95
2023-01-28T09:00:01.159Z,3.35
2023-01-28T09:03:24.346Z,3.65
2023-01-28T09:06:46.402Z,4.10
2023-01-28T09:10:09.002Z,4.80
2023-01-28T09:13:31.390Z,6.03
2023-01-28T09:16:53.735Z,4.97
2023-01-28T09:20:18.179Z,4.45
2023-01-28T09:23:40.313Z,4.03
2023-01-28T09:27:02.317Z,4.70
2023-01-28T09:30:24.692Z,3.33
2023-01-28T09:33:46.858Z,3.92
2023-01-28T09:37:11.567Z,2.33
2023-01-28T09:40:37.895Z,3.13
2023-01-28T09:44:23.865Z,3.60
2023-01-28T09:47:50.183Z,3.17
2023-01-28T09:51:17.695Z,3.45
2023-01-28T09:54:46.344Z,4.03
2023-01-28T09:58:13.256Z,4.13
2023-01-28T10:01:46.046Z,4.07
2023-01-28T10:05:21.664Z,2.88
2023-01-28T10:09:02.748Z,5.30
2023-01-28T10:12:40.846Z,4.10
2023-01-28T10:16:14.205Z,5.13
2023-01-28T10:19:41.340Z,4.55
2023-01-28T10:23:08.868Z,6.45
2023-01-28T10:26:36.569Z,4.10
2023-01-28T10:30:01.834Z,3.50
2023-01-28T10:33:30.437Z,3.55
2023-01-28T10:36:53.242Z,35.03
2023-01-28T10:40:17.446Z,33.97
2023-01-28T10:43:43.053Z,17.38
2023-01-28T10:47:12.494Z,11.82
2023-01-28T10:50:35.473Z,7.38
2023-01-28T10:53:57.501Z,11.25
2023-01-28T10:57:20.494Z,7.93
2023-01-28T11:00:42.610Z,5.40
2023-01-28T11:04:07.665Z,5.38
2023-01-28T11:07:29.748Z,5.68
2023-01-28T11:10:52.612Z,9.13
2023-01-28T11:14:22.347Z,4.97
2023-01-28T11:21:20.541Z,7.63
2023-01-28T11:24:44.435Z,3.88
2023-01-28T11:28:17.423Z,3.47
2023-01-28T11:31:45.013Z,4.30
2023-01-28T11:35:08.007Z,3.55
2023-01-28T11:38:31.713Z,8.30
2023-01-28T11:41:55.062Z,6.18
2023-01-28T11:45:19.144Z,10.73
2023-01-28T11:48:52.368Z,5.75
2023-01-28T11:52:23.248Z,5.13
2023-01-28T11:56:04.534Z,4.75
2023-01-28T12:00:09.892Z,3.03
2023-01-28T12:03:46.038Z,4.13
2023-01-28T12:07:25.228Z,3.20
2023-01-28T12:11:03.128Z,3.88
2023-01-28T12:14:36.326Z,2.97
2023-01-28T12:18:13.576Z,4.05
2023-01-28T12:21:50.293Z,2.45
2023-01-28T12:25:33.422Z,3.03
2023-01-28T12:29:09.178Z,3.30
2023-01-28T12:32:43.565Z,5.13
2023-01-28T12:36:17.605Z,8.20
2023-01-28T12:39:55.145Z,7.05
2023-01-28T12:43:24.192Z,4.22
2023-01-28T12:46:53.294Z,2.35
2023-01-28T12:50:22.247Z,3.20
2023-01-28T12:53:50.813Z,4.78
2023-01-28T12:57:20.300Z,5.73
2023-01-28T13:00:47.942Z,3.80
2023-01-28T13:04:18.717Z,4.32
2023-01-28T13:07:45.431Z,5.45
2023-01-28T13:11:13.583Z,4.90
2023-01-28T13:14:36.547Z,4.30
2023-01-28T13:18:00.175Z,3.78
2023-01-28T13:21:47.301Z,3.22
2023-01-28T13:25:20.940Z,2.73
2023-01-28T13:28:42.969Z,3.22
2023-01-28T13:32:33.144Z,3.30
2023-01-28T13:35:57.488Z,4.50
2023-01-28T13:39:23.729Z,4.03
2023-01-28T13:42:46.347Z,4.25
2023-01-28T13:46:10.789Z,3.58
2023-01-28T13:49:40.210Z,4.18
2023-01-28T13:53:06.419Z,3.97
2023-01-28T13:56:34.309Z,5.60
2023-01-28T14:00:06.007Z,4.55
2023-01-28T14:04:02.561Z,5.32
2023-01-28T14:07:53.617Z,5.10
2023-01-28T14:11:47.612Z,4.20
2023-01-28T14:15:37.346Z,3.92
2023-01-28T14:19:03.134Z,5.22
2023-01-28T14:22:25.422Z,6.88
2023-01-28T14:26:02.964Z,5.65
2023-01-28T14:29:39.205Z,5.82
2023-01-28T14:33:01.532Z,6.43
2023-01-28T14:36:23.398Z,4.10
2023-01-28T14:39:48.040Z,7.25
2023-01-28T14:43:17.713Z,7.15
2023-01-28T14:50:23.893Z,6.63
2023-01-28T14:54:04.581Z,9.60
2023-01-28T14:57:42.468Z,5.72
2023-01-28T15:01:04.725Z,5.22
2023-01-28T15:04:36.694Z,21.20
2023-01-28T15:07:58.938Z,17.50
2023-01-28T15:11:24.700Z,25.80
2023-01-28T15:14:48.897Z,17.77
2023-01-28T15:18:18.787Z,15.23
2023-01-28T15:25:05.053Z,9.18
2023-01-28T15:28:31.191Z,12.35
2023-01-28T15:31:53.564Z,9.35
2023-01-28T15:35:15.636Z,9.80
2023-01-28T15:38:39.355Z,8.82
2023-01-28T15:42:04.199Z,6.00
2023-01-28T15:45:29.913Z,10.65
2023-01-28T15:48:59.538Z,7.13
2023-01-28T15:52:22.814Z,8.02
2023-01-28T15:55:46.609Z,11.90
2023-01-28T15:59:21.046Z,11.98
2023-01-28T16:02:47.310Z,8.32
2023-01-28T16:06:11.856Z,6.82
2023-01-28T16:09:35.823Z,13.90
2023-01-28T16:13:05.893Z,6.55
2023-01-28T16:16:34.416Z,7.03
2023-01-28T16:20:00.475Z,6.22
2023-01-28T16:23:25.954Z,5.55
2023-01-28T16:26:57.825Z,7.03
2023-01-28T16:30:21.279Z,7.75
2023-01-28T16:33:42.786Z,3.78
2023-01-28T16:37:11.930Z,4.82
2023-01-28T16:40:34.928Z,6.72
2023-01-28T16:43:56.809Z,5.63
2023-01-28T16:47:19.986Z,9.48
2023-01-28T16:50:43.903Z,6.47
2023-01-28T16:54:06.729Z,25.88
2023-01-28T16:57:29.146Z,11.95
2023-01-28T17:00:51.327Z,9.00
2023-01-28T17:04:14.999Z,12.43
2023-01-28T17:07:36.831Z,12.02
2023-01-28T17:10:59.143Z,6.68
2023-01-28T17:14:20.856Z,7.80
2023-01-28T17:17:43.273Z,8.52
2023-01-28T17:21:08.156Z,6.82
2023-01-28T17:24:31.199Z,9.02
2023-01-28T17:27:53.353Z,7.22
2023-01-28T17:31:16.261Z,10.65
2023-01-28T17:34:38.929Z,6.93
2023-01-28T17:38:03.109Z,6.00
2023-01-28T17:41:25.411Z,4.93
2023-01-28T17:44:47.200Z,5.68
2023-01-28T17:48:08.963Z,7.13
2023-01-28T17:51:31.006Z,6.88
2023-01-28T17:54:54.101Z,12.77
2023-01-28T17:58:16.176Z,7.38
2023-01-28T18:01:38.296Z,6.45
2023-01-28T18:05:00.273Z,5.78
2023-01-28T18:08:22.485Z,5.88
2023-01-28T18:11:45.604Z,7.82
2023-01-28T18:15:11.075Z,10.55
2023-01-28T18:18:32.948Z,7.70
2023-01-28T18:21:55.948Z,6.10
2023-01-28T18:25:20.254Z,5.97
2023-01-28T18:28:43.249Z,7.03
2023-01-28T18:32:06.598Z,6.57
2023-01-28T18:35:28.685Z,6.80
2023-01-28T18:38:50.726Z,9.00
2023-01-28T18:42:13.443Z,5.65
2023-01-28T18:45:40.993Z,5.53
2023-01-28T18:49:02.998Z,6.80
2023-01-28T18:52:24.786Z,6.13
2023-01-28T18:55:46.814Z,4.70
2023-01-28T18:59:11.654Z,5.00
2023-01-28T19:02:35.181Z,5.18
2023-01-28T19:05:56.989Z,6.00
2023-01-28T19:09:19.050Z,6.78
2023-01-28T19:12:41.009Z,5.57
2023-01-28T19:16:03.849Z,5.72
2023-01-28T19:19:27.594Z,8.15
2023-01-28T19:22:49.431Z,5.82
2023-01-28T19:26:11.611Z,7.47
2023-01-28T19:29:33.715Z,6.40
2023-01-28T19:32:55.455Z,6.65
2023-01-28T19:36:18.718Z,9.13
2023-01-28T19:39:40.735Z,7.50
2023-01-28T19:43:02.661Z,8.57
2023-01-28T19:46:26.090Z,7.82
2023-01-28T19:49:48.060Z,7.90
2023-01-28T19:53:11.579Z,5.88
2023-01-28T19:56:36.239Z,6.00
2023-01-28T19:59:58.421Z,6.25
2023-01-28T20:03:20.337Z,5.32
2023-01-28T20:06:43.695Z,6.45
2023-01-28T20:10:08.824Z,4.90
2023-01-28T20:13:33.110Z,4.68
2023-01-28T20:16:55.577Z,5.10
2023-01-28T20:20:18.270Z,5.60
2023-01-28T20:23:40.000Z,4.70
2023-01-28T20:27:03.541Z,5.90
2023-01-28T20:30:27.132Z,4.63
2023-01-28T20:33:49.000Z,5.13
2023-01-28T20:37:11.250Z,4.80
2023-01-28T20:40:33.709Z,6.00
2023-01-28T20:43:57.969Z,5.60
2023-01-28T20:47:20.359Z,7.30
2023-01-28T20:50:42.133Z,5.43
2023-01-28T20:54:05.127Z,7.22
2023-01-28T20:57:26.913Z,5.15
2023-01-28T21:00:49.886Z,4.88
2023-01-28T21:04:11.926Z,6.35
2023-01-28T21:07:34.403Z,5.50
2023-01-28T21:10:56.366Z,5.43
2023-01-28T21:14:18.538Z,5.75
2023-01-28T21:17:41.680Z,4.82
2023-01-28T21:21:05.752Z,6.35
2023-01-28T21:24:27.958Z,5.95
2023-01-28T21:27:49.930Z,6.88
2023-01-28T21:31:15.079Z,5.75
2023-01-28T21:34:38.302Z,5.50
2023-01-28T21:38:00.352Z,5.18
2023-01-28T21:41:22.344Z,4.85
2023-01-28T21:44:44.229Z,4.65
2023-01-28T21:48:06.538Z,4.38
2023-01-28T21:51:40.630Z,4.72
2023-01-28T21:55:03.041Z,4.60
2023-01-28T21:58:42.694Z,4.88
2023-01-28T22:02:07.592Z,4.40
2023-01-28T22:05:30.085Z,4.50
2023-01-28T22:08:54.826Z,4.28
2023-01-28T22:12:17.345Z,3.83
2023-01-28T22:15:40.733Z,4.35
2023-01-28T22:19:03.158Z,4.00
2023-01-28T22:22:25.286Z,4.22
2023-01-28T22:25:48.425Z,4.20
2023-01-28T22:29:11.548Z,3.15
2023-01-28T22:32:33.797Z,3.33
2023-01-28T22:35:56.106Z,3.97
2023-01-28T22:39:19.211Z,4.22
2023-01-28T22:42:42.401Z,4.22
2023-01-28T22:46:05.840Z,4.35
2023-01-28T22:49:28.102Z,3.83
2023-01-28T22:52:50.021Z,3.10
2023-01-28T22:56:11.928Z,3.55
2023-01-28T22:59:35.341Z,2.88
2023-01-28T23:02:57.317Z,4.30
2023-01-28T23:06:20.931Z,2.80
2023-01-28T23:09:44.833Z,3.50
2023-01-28T23:13:07.290Z,2.88
2023-01-28T23:16:48.799Z,3.70
2023-01-28T23:20:29.964Z,2.47
2023-01-28T23:24:09.241Z,2.42
2023-01-28T23:27:31.293Z,3.10
2023-01-28T23:30:53.670Z,2.67
2023-01-28T23:34:18.160Z,3.13
2023-01-28T23:37:40.354Z,3.10
2023-01-28T23:41:02.371Z,3.58
2023-01-28T23:44:25.306Z,3.78
2023-01-28T23:47:47.451Z,2.55
2023-01-28T23:51:10.812Z,2.78
2023-01-28T23:54:33.438Z,2.47
2023-01-28T23:57:55.307Z,2.72
